METAR Data
IDs: Format: Raw Decoded Include TAF

Data at: 2108 UTC 01 Dec 2021

KLRY 012055Z AUTO 29007KT 10SM CLR 20/01 A2999 RMK AO2